Earby, United Kingdom
Current Conditions -  °F | °C
As of 4:50 PM on Sunday 23 Nov 2014 (Local Time) from EGNM Reporting Station
Few Clouds Few Clouds  
Wind Chill: 34°   Ceiling: Unl
Heat Index: 41°   Visibility: 6mi
Dew Point: 37°   Wind: 12mph
Humidity: 87%   Direction: 290°WNW
Pressure: 30.03"   Gusts: NA
Location:  53.92°N, 2.14°W
Report Text: EGNM 231650Z 29010KT 9999 FEW014 05/03 Q1017
Loading
Personal Weather Stations






























Interactive Weather Map New forecast layout! Learn more

10-Day Weather Forecast

Advertisements
Track Severe Weather on mobile